Flight Track Log - Related Links

Times and Time Zones

All times are in EDT time to prevent confusion due to time zone crossing. See the SWA293 flight status page for this flight to view local times or setup timezone preferences in your user account.

Time Position Orientation Groundspeed Altitude Reporting Facility
EDT Latitude Longitude Course Direction KTS MPH feet Rate Location/Type
Mon 09:45:32 AM 47.4306 -122.3097 180° South 167 192 1,500  Level Seattle Center
Mon 09:46:51 AM 47.3594 -122.3094 180° South 209 241 3,700 1,960 Climbing Seattle Center
Mon 09:48:02 AM 47.3181 -122.2483 135° Southeast 243 280 6,400 2,427 Climbing Seattle Center
Mon 09:49:02 AM 47.3439 -122.1308 72° East 283 326 9,000 1,934 Climbing Seattle Center
Mon 09:50:03 AM 47.3678 -122.0175 73° East 291 335 10,300 1,574 Climbing Seattle Center
Mon 09:51:04 AM 47.3956 -121.8844 73° East 352 405 12,200 2,231 Climbing Seattle Center
Mon 09:52:04 AM 47.4250 -121.7414 73° East 366 421 14,800 2,529 Climbing Seattle Center
Mon 09:53:05 AM 47.4275 -121.5878 89° East 375 432 17,300 2,132 Climbing Seattle Center
Mon 09:54:05 AM 47.4247 -121.4364 91° East 392 451 19,100 1,934 Climbing Seattle Center
Mon 09:55:06 AM 47.4222 -121.2711 91° East 405 466 21,200 1,918 Climbing Seattle Center
Mon 09:56:07 AM 47.4197 -121.1003 91° East 418 481 23,000 1,636 Climbing Seattle Center
Mon 09:57:07 AM 47.4156 -120.9217 92° East 437 503 24,500 1,636 Climbing Seattle Center
Mon 09:58:08 AM 47.4136 -120.7119 91° East 452 520 26,300 1,574 Climbing Seattle Center
Mon 09:59:09 AM 47.4108 -120.5181 91° East 469 540 27,700 1,289 Climbing Seattle Center
Mon 10:00:09 AM 47.4053 -120.3233 92° East 476 548 28,900 1,140 Climbing Seattle Center
Mon 10:01:10 AM 47.4000 -120.1244 92° East 484 557 30,000 1,279 Climbing Seattle Center
Mon 10:02:11 AM 47.3933 -119.9217 93° East 493 567 31,500 1,339 Climbing Seattle Center
Mon 10:03:11 AM 47.3897 -119.7219 91° East 492 566 32,700 1,140 Climbing Seattle Center
Mon 10:04:12 AM 47.3811 -119.5206 94° East 492 566 33,800 1,131 Climbing Seattle Center
Mon 10:05:13 AM 47.3792 -119.3139 91° East 498 573 35,000 595 Climbing Seattle Center
Mon 10:06:13 AM 47.3864 -119.1147 87° East 496 571 35,000  Level Seattle Center
Mon 10:07:14 AM 47.3936 -118.9153 87° East 491 565 35,000  Level Seattle Center
Mon 10:08:15 AM 47.3997 -118.7136 87° East 492 566 35,000  Level Seattle Center
Mon 10:09:15 AM 47.4081 -118.4703 87° East 495 570 35,000  Level Seattle Center
Mon 10:10:16 AM 47.4125 -118.2703 88° East 491 565 35,000  Level Seattle Center
Mon 10:11:17 AM 47.4189 -118.0672 87° East 495 570 35,000  Level Seattle Center
Mon 10:12:18 AM 47.4239 -117.8667 88° East 492 566 35,000  Level Seattle Center
Mon 10:13:18 AM 47.4292 -117.6661 88° East 492 566 35,000  Level Seattle Center
Mon 10:14:19 AM 47.4336 -117.4672 88° East 489 563 35,000  Level Seattle Center
Mon 10:15:20 AM 47.4378 -117.2694 88° East 490 564 35,000  Level Seattle Center
Mon 10:16:21 AM 47.4406 -117.0722 89° East 493 567 35,000  Level Seattle Center
Mon 10:17:22 AM 47.4442 -116.8747 88° East 496 571 35,000  Level Seattle Center
Mon 10:18:22 AM 47.4475 -116.6775 88° East 489 563 35,000  Level Seattle Center
Mon 10:19:23 AM 47.4503 -116.4353 89° East 494 568 35,000  Level Seattle Center
Mon 10:20:24 AM 47.4522 -116.2333 89° East 495 570 35,000  Level Seattle Center
Mon 10:21:25 AM 47.4539 -116.0319 89° East 493 567 35,000  Level Seattle Center
Mon 10:22:26 AM 47.4556 -115.8283 89° East 496 571 35,000  Level Seattle Center
Mon 10:23:27 AM 47.4567 -115.6308 89° East 495 570 35,000  Level Seattle Center
Mon 10:24:27 AM 47.4481 -115.4247 93° East 493 567 35,000  Level Seattle Center
Mon 10:25:28 AM 47.4392 -115.2281 94° East 495 570 35,000  Level Seattle Center
Mon 10:26:29 AM 47.4303 -115.0267 94° East 496 571 35,000  Level Seattle Center
Mon 10:27:12 AM 47.4222 -114.8661 94° East 496 571 35,000  Level Salt Lake Center
Mon 10:28:14 AM 47.4131 -114.6672 94° East 492 566 35,000  Level Salt Lake Center
Mon 10:29:15 AM 47.4039 -114.4678 94° East 491 565 35,000  Level Salt Lake Center
Mon 10:29:32 AM 47.4003 -114.3886 94° East 492 566 35,000  Level Seattle Center
Mon 10:30:17 AM 47.3933 -114.2694 95° East 492 566 35,000  Level Salt Lake Center
Mon 10:31:18 AM 47.3803 -114.0317 95° East 489 563 35,000  Level Salt Lake Center
Mon 10:32:20 AM 47.3694 -113.8339 95° East 488 562 35,000  Level Salt Lake Center
Mon 10:33:22 AM 47.3578 -113.6353 95° East 489 563 35,000  Level Salt Lake Center
Mon 10:34:23 AM 47.3461 -113.4314 95° East 488 562 35,000  Level Salt Lake Center
Mon 10:35:25 AM 47.3344 -113.2400 95° East 485 558 35,000  Level Salt Lake Center
Mon 10:36:27 AM 47.3222 -113.0414 95° East 490 564 35,000  Level Salt Lake Center
Mon 10:37:28 AM 47.3078 -112.8189 95° East 484 557 35,000  Level Salt Lake Center
Mon 10:38:30 AM 47.2947 -112.6214 95° East 487 560 35,000  Level Salt Lake Center
Mon 10:39:32 AM 47.2817 -112.4253 96° East 484 557 35,000  Level Salt Lake Center
Mon 10:40:33 AM 47.2683 -112.2317 96° East 480 552 35,000  Level Salt Lake Center
Mon 10:41:35 AM 47.2539 -112.0372 96° East 480 552 35,000  Level Salt Lake Center
Mon 10:42:37 AM 47.2367 -111.8025 96° East 486 559 35,000  Level Salt Lake Center
Mon 10:43:39 AM 47.2239 -111.6083 95° East 482 555 35,000 195 Level Salt Lake Center
Mon 10:44:40 AM 47.2083 -111.4122 97° East 487 560 35,400 732 Climbing Salt Lake Center
Mon 10:45:42 AM 47.1939 -111.2169 96° East 487 560 36,500 726 Climbing Salt Lake Center
Mon 10:46:44 AM 47.1772 -111.0228 97° East 485 558 36,900 242 Climbing Salt Lake Center
Mon 10:47:46 AM 47.1583 -110.7856 97° East 491 565 37,000 48 Climbing Salt Lake Center
Mon 10:48:48 AM 47.1408 -110.5864 97° East 494 568 37,000  Level Salt Lake Center
Mon 10:49:49 AM 47.1244 -110.3875 97° East 493 567 37,000  Level Salt Lake Center
Mon 10:50:51 AM 47.1069 -110.1886 97° East 493 567 37,000  Level Salt Lake Center
Mon 10:51:53 AM 47.0903 -109.9861 97° East 501 577 37,000  Level Salt Lake Center
Mon 10:52:55 AM 47.0739 -109.7861 97° East 499 574 37,000  Level Salt Lake Center
Mon 10:53:57 AM 47.0464 -109.5489 100° East 496 571 37,000  Level Salt Lake Center
Mon 10:54:59 AM 47.0117 -109.3494 104° East 505 581 37,000  Level Salt Lake Center
Mon 10:56:01 AM 46.9781 -109.1519 104° East 503 579 37,000  Level Salt Lake Center
Mon 10:57:03 AM 46.9397 -108.9378 105° East 499 574 37,000  Level Salt Lake Center
Mon 10:58:05 AM 46.9072 -108.7450 104° East 506 582 37,000  Level Salt Lake Center
Mon 10:59:07 AM 46.8689 -108.5244 104° East 503 579 37,000  Level Salt Lake Center
Mon 11:00:09 AM 46.8350 -108.3333 104° East 505 581 37,000  Level Salt Lake Center
Mon 11:01:11 AM 46.8008 -108.1442 105° East 504 580 37,000  Level Salt Lake Center
Mon 11:02:13 AM 46.7603 -107.9211 105° East 507 583 37,000  Level Salt Lake Center
Mon 11:03:15 AM 46.7264 -107.7289 104° East 511 588 37,000  Level Salt Lake Center
Mon 11:04:17 AM 46.6844 -107.5058 105° East 512 589 37,000  Level Salt Lake Center
Mon 11:05:19 AM 46.6489 -107.3156 105° East 509 586 37,000  Level Salt Lake Center
Mon 11:06:21 AM 46.6067 -107.0936 105° East 510 587 37,000  Level Salt Lake Center
Mon 11:07:23 AM 46.5697 -106.9031 106° East 510 587 37,000  Level Salt Lake Center
Mon 11:08:25 AM 46.5258 -106.6775 106° East 515 593 37,000  Level Salt Lake Center
Mon 11:09:27 AM 46.4836 -106.4919 108° East 512 589 37,000  Level Salt Lake Center
Mon 11:10:29 AM 46.4311 -106.2764 109° East 509 586 37,000  Level Salt Lake Center
Mon 11:11:31 AM 46.3867 -106.0906 109° East 509 586 37,000  Level Salt Lake Center
Mon 11:12:33 AM 46.3431 -105.9075 109° East 506 582 37,000  Level Salt Lake Center
Mon 11:13:35 AM 46.2917 -105.6950 109° East 503 579 37,000  Level Salt Lake Center
Mon 11:14:37 AM 46.2469 -105.5125 109° East 502 578 37,000  Level Salt Lake Center
Mon 11:15:39 AM 46.1975 -105.3042 109° East 497 572 37,000  Level Salt Lake Center
Mon 11:16:41 AM 46.1536 -105.1261 110° East 494 568 37,000  Level Salt Lake Center
Mon 11:17:43 AM 46.1025 -104.9181 109° East 493 567 37,000  Level Salt Lake Center
Mon 11:18:45 AM 46.0583 -104.7411 110° East 492 566 37,000  Level Salt Lake Center
Mon 11:19:47 AM 46.0061 -104.5328 110° East 494 568 37,000  Level Salt Lake Center
Mon 11:20:49 AM 45.9675 -104.3806 110° East 494 568 37,000  Level Salt Lake Center
Mon 11:21:51 AM 45.9111 -104.1597 110° East 494 568 37,000  Level Salt Lake Center
Mon 11:22:53 AM 45.8647 -103.9792 110° East 488 562 37,000  Level Salt Lake Center
Mon 11:23:55 AM 45.8172 -103.7975 111° Southeast 488 562 37,000  Level Salt Lake Center
Mon 11:24:57 AM 45.7703 -103.6175 110° East 486 559 37,000  Level Salt Lake Center
Mon 11:25:59 AM 45.7228 -103.4389 111° Southeast 484 557 37,000  Level Salt Lake Center
Mon 11:27:01 AM 45.6653 -103.2231 111° Southeast 486 559 37,000  Level Salt Lake Center
Mon 11:27:59 AM 45.6278 -103.0864 111° Southeast 481 554 37,000  Level Minneapolis Center
Mon 11:29:01 AM 45.5703 -102.8725 111° Southeast 482 555 37,000  Level Minneapolis Center
Mon 11:30:04 AM 45.5217 -102.6978 112° Southeast 484 557 37,000  Level Minneapolis Center
Mon 11:31:06 AM 45.4728 -102.5189 111° Southeast 485 558 37,000  Level Minneapolis Center
Mon 11:32:08 AM 45.4228 -102.3369 111° Southeast 491 565 37,000  Level Minneapolis Center
Mon 11:33:10 AM 45.3611 -102.1189 112° Southeast 495 570 37,000  Level Minneapolis Center
Mon 11:34:12 AM 45.3094 -101.9369 112° Southeast 497 572 37,000  Level Minneapolis Center
Mon 11:35:14 AM 45.2558 -101.7547 113° Southeast 499 574 37,000  Level Minneapolis Center
Mon 11:36:16 AM 45.2039 -101.5722 112° Southeast 500 575 37,000  Level Minneapolis Center
Mon 11:37:18 AM 45.1508 -101.3906 112° Southeast 500 575 37,000  Level Minneapolis Center
Mon 11:38:20 AM 45.0972 -101.2094 113° Southeast 500 575 37,000  Level Minneapolis Center
Mon 11:39:22 AM 45.0383 -100.9906 111° Southeast 499 574 37,000  Level Minneapolis Center
Mon 11:40:24 AM 44.9847 -100.8100 113° Southeast 499 574 37,000  Level Minneapolis Center
Mon 11:41:27 AM 44.9300 -100.6278 113° Southeast 504 580 37,000  Level Minneapolis Center
Mon 11:42:29 AM 44.8736 -100.4483 114° Southeast 505 581 37,000  Level Minneapolis Center
Mon 11:43:31 AM 44.8206 -100.2669 112° Southeast 506 582 37,000  Level Minneapolis Center
Mon 11:44:33 AM 44.7544 -100.0514 113° Southeast 508 585 37,000  Level Minneapolis Center
Mon 11:45:35 AM 44.7000 -99.8708 113° Southeast 509 586 37,000  Level Minneapolis Center
Mon 11:46:37 AM 44.6433 -99.6889 114° Southeast 512 589 37,000  Level Minneapolis Center
Mon 11:47:39 AM 44.5875 -99.5056 113° Southeast 513 590 37,000  Level Minneapolis Center
Mon 11:48:41 AM 44.5300 -99.3236 114° Southeast 513 590 37,000  Level Minneapolis Center
Mon 11:49:43 AM 44.4636 -99.1083 113° Southeast 507 583 37,000  Level Minneapolis Center
Mon 11:50:45 AM 44.4064 -98.9289 114° Southeast 506 582 37,000  Level Minneapolis Center
Mon 11:51:47 AM 44.3614 -98.7872 114° Southeast 502 578 37,000  Level Minneapolis Center
Mon 11:52:50 AM 44.2908 -98.5761 115° Southeast 502 578 37,000  Level Minneapolis Center
Mon 11:53:52 AM 44.2297 -98.3833 114° Southeast 499 574 37,000  Level Minneapolis Center
Mon 11:54:54 AM 44.1717 -98.2075 115° Southeast 500 575 37,000  Level Minneapolis Center
Mon 11:55:56 AM 44.1147 -98.0342 115° Southeast 496 571 37,000  Level Minneapolis Center
Mon 11:56:58 AM 44.0581 -97.8611 114° Southeast 495 570 37,000  Level Minneapolis Center
Mon 11:58:00 AM 44.0114 -97.7233 115° Southeast 494 568 37,000  Level Minneapolis Center
Mon 11:59:02 AM 43.9308 -97.4800 115° Southeast 500 575 37,000  Level Minneapolis Center
Mon 12:00:04 PM 43.8725 -97.3108 116° Southeast 492 566 37,000  Level Minneapolis Center
Mon 12:01:06 PM 43.8144 -97.1372 115° Southeast 498 573 37,000  Level Minneapolis Center
Mon 12:02:08 PM 43.7556 -96.9656 115° Southeast 499 574 37,000  Level Minneapolis Center
Mon 12:03:11 PM 43.6844 -96.7608 116° Southeast 498 573 37,000  Level Minneapolis Center
Mon 12:04:13 PM 43.6256 -96.5892 115° Southeast 498 573 37,000  Level Minneapolis Center
Mon 12:05:15 PM 43.5658 -96.4183 116° Southeast 499 574 37,000  Level Minneapolis Center
Mon 12:06:17 PM 43.4892 -96.2617 124° Southeast 500 575 37,000  Level Minneapolis Center
Mon 12:07:19 PM 43.3931 -96.1361 136° Southeast 484 557 37,000  Level Minneapolis Center
Mon 12:08:21 PM 43.2781 -95.9828 136° Southeast 482 555 37,000  Level Minneapolis Center
Mon 12:09:23 PM 43.1819 -95.8561 136° Southeast 482 555 37,000  Level Minneapolis Center
Mon 12:10:37 PM 43.0853 -95.7303 136° Southeast 482 555 37,000  Level Minneapolis Center
Mon 12:11:40 PM 42.9697 -95.5783 136° Southeast 482 555 37,000  Level Minneapolis Center
Mon 12:12:42 PM 42.8733 -95.4519 136° Southeast 482 555 37,000  Level Minneapolis Center
Mon 12:13:44 PM 42.7764 -95.3264 136° Southeast 483 556 37,000  Level Minneapolis Center
Mon 12:14:46 PM 42.6647 -95.1811 136° Southeast 479 551 37,000  Level Minneapolis Center
Mon 12:15:48 PM 42.5689 -95.0583 137° Southeast 475 547 37,000  Level Minneapolis Center
Mon 12:16:50 PM 42.4722 -94.9350 137° Southeast 475 547 37,000  Level Minneapolis Center
Mon 12:17:52 PM 42.3753 -94.8125 137° Southeast 475 547 37,000  Level Minneapolis Center
Mon 12:18:54 PM 42.2775 -94.6903 137° Southeast 476 548 37,000  Level Minneapolis Center
Mon 12:19:56 PM 42.1811 -94.5675 137° Southeast 476 548 37,000  Level Minneapolis Center
Mon 12:20:58 PM 42.0650 -94.4217 137° Southeast 475 547 37,000  Level Minneapolis Center
Mon 12:22:00 PM 41.9661 -94.2992 137° Southeast 477 549 37,000  Level Minneapolis Center
Mon 12:23:02 PM 41.8686 -94.1800 138° Southeast 475 547 37,000  Level Minneapolis Center
Mon 12:24:04 PM 41.7861 -94.0394 128° Southeast 494 568 37,000  Level Minneapolis Center
Mon 12:25:06 PM 41.7617 -93.8553 100° East 526 605 37,000 -290 Level Minneapolis Center
Mon 12:26:08 PM 41.7322 -93.6300 100° East 518 596 36,400 -726 Descending Minneapolis Center
Mon 12:27:10 PM 41.7067 -93.4397 100° East 522 601 35,500 -823 Descending Minneapolis Center
Mon 12:28:12 PM 41.6836 -93.2492 99° East 522 601 34,700 -871 Descending Minneapolis Center
Mon 12:29:14 PM 41.6597 -93.0578 99° East 524 603 33,700 -823 Descending Minneapolis Center
Mon 12:30:16 PM 41.6353 -92.8700 100° East 520 598 33,000 -528 Descending Minneapolis Center
Mon 12:31:19 PM 41.6097 -92.6789 100° East 522 601 32,600 -626 Descending Minneapolis Center
Mon 12:32:11 PM 41.5864 -92.5014 100° East 523 602 31,800 -1,053 Descending Chicago Center
Mon 12:33:13 PM 41.5578 -92.2819 100° East 513 590 30,600 -1,016 Descending Chicago Center
Mon 12:34:15 PM 41.5328 -92.0994 100° East 508 585 29,700 -774 Descending Chicago Center
Mon 12:35:17 PM 41.5069 -91.9147 101° East 511 588 29,000 -339 Descending Chicago Center
Mon 12:36:19 PM 41.4822 -91.7328 100° East 508 585 29,000 -97 Level Chicago Center
Mon 12:37:21 PM 41.4553 -91.5497 101° East 508 585 28,800 -768 Descending Chicago Center
Mon 12:38:24 PM 41.4256 -91.3406 101° East 488 562 27,400 -1,152 Descending Chicago Center
Mon 12:39:26 PM 41.4025 -91.1722 100° East 473 544 26,400 -968 Descending Chicago Center
Mon 12:40:28 PM 41.3786 -91.0117 101° East 456 525 25,400 -968 Descending Chicago Center
Mon 12:41:30 PM 41.3544 -90.8567 102° East 439 505 24,400 -677 Descending Chicago Center
Mon 12:42:32 PM 41.3264 -90.6706 101° East 433 498 24,000 -290 Descending Chicago Center
Mon 12:43:34 PM 41.3036 -90.5133 101° East 435 501 23,800 -532 Descending Chicago Center
Mon 12:44:36 PM 41.2794 -90.3589 102° East 432 497 22,900 -919 Descending Chicago Center
Mon 12:45:38 PM 41.2553 -90.2089 102° East 432 497 21,900 -1,016 Descending Chicago Center
Mon 12:46:40 PM 41.2267 -90.0175 101° East 439 505 20,800 -1,016 Descending Chicago Center
Mon 12:47:42 PM 41.2011 -89.8567 102° East 447 514 19,800 -968 Descending Chicago Center
Mon 12:48:44 PM 41.1769 -89.7014 102° East 439 505 18,800 -968 Descending Chicago Center
Mon 12:49:46 PM 41.1617 -89.5453 97° East 433 498 17,800 -960 Descending Chicago Center
Mon 12:50:49 PM 41.1717 -89.3922 85° East 421 484 16,800 -1,056 Descending Chicago Center
Mon 12:51:51 PM 41.1847 -89.2128 84° East 413 475 15,600 -1,210 Descending Chicago Center
Mon 12:52:53 PM 41.1931 -89.0647 86° East 408 470 14,300 -1,645 Descending Chicago Center
Mon 12:53:55 PM 41.2019 -88.9203 85° East 400 460 12,200 -1,839 Descending Chicago Center
Mon 12:54:57 PM 41.2375 -88.7942 69° East 380 437 10,500 -1,258 Descending Chicago Center
Mon 12:55:59 PM 41.2967 -88.7044 49° Northeast 332 382 9,600 -1,161 Descending Chicago Center
Mon 12:57:01 PM 41.3667 -88.6108 45° Northeast 303 349 8,100 -1,258 Descending Chicago Center
Mon 12:58:03 PM 41.4414 -88.5864 14° North 289 333 7,000 -1,008 Descending Chicago Center
Mon 12:59:06 PM 41.4825 -88.5028 57° Northeast 285 328 6,000 -480 Descending Chicago Center
Mon 01:00:08 PM 41.5019 -88.4019 76° East 283 326 6,000  Level Chicago Center
Mon 01:01:10 PM 41.5228 -88.3006 75° East 283 326 6,000 -290 Level Chicago Center
Mon 01:02:12 PM 41.5436 -88.1978 75° East 284 327 5,400 -484 Descending Chicago Center
Mon 01:03:14 PM 41.5675 -88.0750 75° East 283 326 5,000 -194 Descending Chicago Center
Mon 01:04:16 PM 41.5875 -87.9739 75° East 281 323 5,000  Level Chicago Center
Mon 01:05:18 PM 41.6067 -87.8731 76° East 280 322 5,000 -581 Level Chicago Center
Mon 01:06:20 PM 41.6269 -87.7708 75° East 282 325 3,800 -871 Descending Chicago Center
Mon 01:07:22 PM 41.6464 -87.6722 75° East 281 323 3,200 -435 Descending Chicago Center
Mon 01:08:24 PM 41.6844 -87.6372 34° Northeast 231 266 2,900 -576 Descending Chicago Center
Mon 01:09:27 PM 41.7319 -87.6778 328° Northwest 193 222 2,000 -816 Descending Chicago Center
Mon 01:10:29 PM 41.7625 -87.7225 312° West 175 201 1,200 -484 Descending Chicago Center
Mon 01:11:31 PM 41.7925 -87.7639 314° West 172 198 1,000 -194 Descending Chicago Center

Login

Don't have an account? Register now (free) for customized features, flight alerts, and more!